EJU83AX LIRF-LFMN
Flight info
| Callsign | EJU83AX |
|---|---|
| Flight time | N/A |
| Altitude | 32000 |
| Route | PODOX DCT TOBGA DCT DOBIM/N0409F300 DCT AKUTI R16 KERIT |
| Aircraft | A320/M-SDE2E3FGHIJ1RWXYZ/LB1 |
Departure
| Time | 2026-05-05 16:10 |
|---|---|
| Airport | Rome–Fiumicino Leonardo da Vinci International Airport (LIRF) |
Arrival
| Time | N/A |
|---|---|
| Airport | Nice-Côte d'Azur Airport (LFMN) |
| Time | Latitude | Longitude | Altitude | Speed | Heading |
|---|---|---|---|---|---|
| 2026-05-05 15:43 | 41.79727 | 12.25642 | 15 ft | 0 kts | 295° |
| 2026-05-05 15:58 | 41.79718 | 12.25665 | 15 ft | 4 kts | 307° |
| 2026-05-05 15:58 | 41.79699 | 12.25689 | 16 ft | 4 kts | 345° |
| 2026-05-05 15:59 | 41.79680 | 12.25689 | 15 ft | 1 kts | 25° |
| 2026-05-05 15:59 | 41.79677 | 12.25687 | 15 ft | 0 kts | 25° |
| 2026-05-05 16:01 | 41.79684 | 12.25691 | 15 ft | 3 kts | 25° |
| 2026-05-05 16:02 | 41.79721 | 12.25714 | 15 ft | 6 kts | 25° |
| 2026-05-05 16:02 | 41.79769 | 12.25744 | 15 ft | 9 kts | 25° |
| 2026-05-05 16:02 | 41.79826 | 12.25780 | 15 ft | 9 kts | 25° |
| 2026-05-05 16:02 | 41.79878 | 12.25824 | 16 ft | 9 kts | 35° |
| 2026-05-05 16:03 | 41.79930 | 12.25857 | 15 ft | 8 kts | 24° |
| 2026-05-05 16:03 | 41.79984 | 12.25891 | 16 ft | 9 kts | 25° |
| 2026-05-05 16:03 | 41.80021 | 12.25914 | 15 ft | 9 kts | 25° |
| 2026-05-05 16:03 | 41.80096 | 12.25959 | 15 ft | 9 kts | 25° |
| 2026-05-05 16:04 | 41.80133 | 12.25982 | 17 ft | 9 kts | 25° |
| 2026-05-05 16:04 | 41.80227 | 12.26041 | 15 ft | 13 kts | 24° |
| 2026-05-05 16:04 | 41.80305 | 12.26088 | 17 ft | 12 kts | 24° |
| 2026-05-05 16:04 | 41.80353 | 12.26118 | 16 ft | 11 kts | 24° |
| 2026-05-05 16:05 | 41.80474 | 12.26182 | 15 ft | 18 kts | 12° |
| 2026-05-05 16:05 | 41.80531 | 12.26247 | 15 ft | 16 kts | 67° |
| 2026-05-05 16:05 | 41.80573 | 12.26397 | 15 ft | 18 kts | 70° |
| 2026-05-05 16:05 | 41.80619 | 12.26565 | 16 ft | 20 kts | 70° |
| 2026-05-05 16:06 | 41.80670 | 12.26750 | 16 ft | 22 kts | 70° |
| 2026-05-05 16:06 | 41.80720 | 12.26936 | 15 ft | 18 kts | 69° |
| 2026-05-05 16:06 | 41.80799 | 12.27042 | 15 ft | 17 kts | 355° |
| 2026-05-05 16:06 | 41.80888 | 12.27004 | 15 ft | 12 kts | 339° |
| 2026-05-05 16:07 | 41.80956 | 12.26952 | 14 ft | 11 kts | 293° |
| 2026-05-05 16:07 | 41.80948 | 12.26888 | 15 ft | 1 kts | 250° |
| 2026-05-05 16:07 | 41.80948 | 12.26887 | 15 ft | 0 kts | 250° |
| 2026-05-05 16:09 | 41.80866 | 12.26599 | 15 ft | 73 kts | 249° |
| 2026-05-05 16:10 | 41.80612 | 12.25671 | 17 ft | 136 kts | 249° |
| 2026-05-05 16:10 | 41.80243 | 12.24276 | 190 ft | 169 kts | 246° |
| 2026-05-05 16:10 | 41.79874 | 12.22812 | 1013 ft | 165 kts | 243° |
| 2026-05-05 16:10 | 41.79451 | 12.21314 | 1592 ft | 184 kts | 248° |
| 2026-05-05 16:11 | 41.79295 | 12.19473 | 2014 ft | 214 kts | 263° |
| 2026-05-05 16:11 | 41.79109 | 12.12643 | 4084 ft | 259 kts | 265° |
| 2026-05-05 16:12 | 41.79052 | 12.10219 | 5135 ft | 261 kts | 265° |
| 2026-05-05 16:12 | 41.79002 | 12.05330 | 7145 ft | 265 kts | 268° |
| 2026-05-05 16:13 | 41.79022 | 11.97800 | 9915 ft | 275 kts | 268° |
| 2026-05-05 16:13 | 41.79020 | 11.95186 | 10492 ft | 291 kts | 268° |
| 2026-05-05 16:13 | 41.79014 | 11.92375 | 10883 ft | 310 kts | 268° |
| 2026-05-05 16:14 | 41.78999 | 11.86467 | 12235 ft | 328 kts | 269° |
| 2026-05-05 16:14 | 41.78978 | 11.79955 | 12751 ft | 366 kts | 269° |
| 2026-05-05 16:15 | 41.78956 | 11.73016 | 14063 ft | 377 kts | 269° |
| 2026-05-05 16:15 | 41.78922 | 11.65930 | 15298 ft | 384 kts | 268° |
| 2026-05-05 16:16 | 41.78874 | 11.58710 | 16560 ft | 391 kts | 268° |
| 2026-05-05 16:16 | 41.79154 | 11.51367 | 17751 ft | 399 kts | 275° |
| 2026-05-05 16:17 | 41.79760 | 11.43912 | 18806 ft | 405 kts | 275° |
| 2026-05-05 16:17 | 41.80070 | 11.40141 | 19299 ft | 408 kts | 275° |
| 2026-05-05 16:18 | 41.81677 | 11.32818 | 20263 ft | 419 kts | 297° |
| 2026-05-05 16:18 | 41.83395 | 11.29639 | 20741 ft | 424 kts | 307° |
| 2026-05-05 16:18 | 41.87212 | 11.23535 | 21663 ft | 429 kts | 307° |
| 2026-05-05 16:19 | 41.89133 | 11.20452 | 22107 ft | 432 kts | 307° |
| 2026-05-05 16:19 | 41.91063 | 11.17350 | 22552 ft | 434 kts | 307° |
| 2026-05-05 16:19 | 41.94961 | 11.11089 | 23432 ft | 440 kts | 309° |
| 2026-05-05 16:20 | 41.99275 | 11.05173 | 24164 ft | 445 kts | 312° |
| 2026-05-05 16:20 | 42.03728 | 10.99329 | 24893 ft | 448 kts | 312° |
| 2026-05-05 16:21 | 42.08200 | 10.93462 | 25599 ft | 450 kts | 312° |
| 2026-05-05 16:22 | 42.14908 | 10.84525 | 26646 ft | 454 kts | 311° |
| 2026-05-05 16:22 | 42.19395 | 10.78524 | 27304 ft | 455 kts | 311° |
| 2026-05-05 16:23 | 42.23887 | 10.72496 | 28104 ft | 453 kts | 310° |
| 2026-05-05 16:23 | 42.26116 | 10.69502 | 28601 ft | 451 kts | 310° |
| 2026-05-05 16:23 | 42.30529 | 10.63570 | 29624 ft | 445 kts | 310° |
| 2026-05-05 16:24 | 42.32716 | 10.60630 | 30120 ft | 442 kts | 309° |
| 2026-05-05 16:24 | 42.34887 | 10.57710 | 30547 ft | 439 kts | 309° |
| 2026-05-05 16:24 | 42.39192 | 10.51904 | 31319 ft | 436 kts | 309° |
| 2026-05-05 16:25 | 42.41340 | 10.49004 | 31721 ft | 435 kts | 309° |
| 2026-05-05 16:25 | 42.45596 | 10.43272 | 31987 ft | 424 kts | 308° |
| 2026-05-05 16:25 | 42.47668 | 10.40471 | 31986 ft | 418 kts | 308° |